Time;durP1;ratioP1;P1;durP2;ratioP2;P2;SDS_P1;SDS_P2;PMS_P1;PMS_P2;Temp;Humidity;BMP_temperature;BMP_pressure;BME280_temperature;BME280_humidity;BME280_pressure;Samples;Min_cycle;Max_cycle;Signal;HPM_P1;HPM_P2
2023/06/14 00:03:31;;;;;;;6.72;1.52;;;24.10;47.80;;;;;;5011975;28;20064;-57
2023/06/14 00:06:17;;;;;;;6.47;1.95;;;24.10;47.90;;;;;;5011851;28;20041;-58
2023/06/14 00:08:43;;;;;;;6.72;2.00;;;24.10;48.00;;;;;;5011320;28;20123;-57
2023/06/14 00:11:09;;;;;;;9.82;2.00;;;24.10;48.00;;;;;;5011868;28;20055;-57
2023/06/14 00:13:34;;;;;;;6.30;1.90;;;24.10;48.30;;;;;;5010982;28;20112;-58
2023/06/14 00:16:00;;;;;;;10.95;2.15;;;24.10;48.00;;;;;;5013209;28;20040;-57
2023/06/14 00:18:29;;;;;;;5.00;1.63;;;24.10;48.00;;;;;;5015724;28;20041;-57
2023/06/14 00:20:55;;;;;;;7.88;2.00;;;24.10;48.10;;;;;;5015920;28;20025;-56
2023/06/14 00:23:21;;;;;;;3.35;1.38;;;24.00;48.00;;;;;;5016119;28;20030;-57
2023/06/14 00:25:47;;;;;;;6.65;2.10;;;24.10;48.10;;;;;;5015387;28;20026;-57
2023/06/14 00:28:13;;;;;;;8.30;2.10;;;24.00;48.10;;;;;;5015052;28;20079;-54
2023/06/14 00:30:39;;;;;;;7.57;1.75;;;24.00;48.00;;;;;;5013773;28;20033;-52
2023/06/14 00:33:05;;;;;;;6.25;1.75;;;24.00;48.10;;;;;;5014978;28;20036;-54
2023/06/14 00:35:31;;;;;;;5.53;1.65;;;24.00;48.10;;;;;;5013624;28;20034;-56
2023/06/14 00:37:57;;;;;;;6.38;1.70;;;24.00;48.10;;;;;;5014572;28;20030;-51
2023/06/14 00:40:23;;;;;;;6.78;1.80;;;24.00;48.10;;;;;;5014791;28;20022;-53
2023/06/14 00:42:49;;;;;;;5.78;2.10;;;24.00;48.10;;;;;;5014633;28;20018;-53
2023/06/14 00:45:16;;;;;;;7.07;1.70;;;24.00;48.10;;;;;;5013275;28;20026;-53
2023/06/14 00:47:43;;;;;;;5.15;1.65;;;24.00;48.20;;;;;;5013333;28;20030;-53
2023/06/14 00:50:11;;;;;;;4.63;1.65;;;24.00;48.20;;;;;;5014608;28;20037;-54
2023/06/14 00:52:37;;;;;;;4.78;1.88;;;24.00;48.20;;;;;;5014694;28;20167;-56
2023/06/14 00:55:03;;;;;;;6.80;1.80;;;23.90;48.20;;;;;;5014458;28;20022;-58
2023/06/14 00:57:30;;;;;;;5.50;1.90;;;24.00;48.20;;;;;;5014120;28;20036;-58
2023/06/14 00:59:56;;;;;;;6.00;1.70;;;24.00;48.20;;;;;;5014350;28;20029;-55
2023/06/14 01:02:22;;;;;;;4.47;1.70;;;24.00;48.30;;;;;;5014322;28;20030;-58
2023/06/14 01:04:50;;;;;;;8.07;1.88;;;24.00;48.20;;;;;;5014302;28;20026;-58
2023/06/14 01:07:53;;;;;;;6.07;1.70;;;24.00;48.20;;;;;;5013915;28;20022;-57
2023/06/14 01:10:52;;;;;;;3.95;1.60;;;24.00;48.20;;;;;;5014090;28;20501;-56
2023/06/14 01:13:34;;;;;;;6.13;1.88;;;24.00;48.20;;;;;;5014053;28;20025;-56
2023/06/14 01:16:00;;;;;;;3.60;1.58;;;24.00;48.20;;;;;;5012901;28;20500;-54
2023/06/14 01:18:29;;;;;;;5.95;1.85;;;24.00;48.20;;;;;;5012447;28;20057;-52
2023/06/14 01:20:56;;;;;;;3.55;1.58;;;24.00;48.10;;;;;;5013953;28;20101;-52
2023/06/14 01:23:25;;;;;;;4.53;1.73;;;24.00;48.10;;;;;;5013937;28;20045;-56
2023/06/14 01:25:55;;;;;;;4.82;1.83;;;24.00;48.20;;;;;;5014029;28;20032;-49
2023/06/14 01:28:22;;;;;;;6.25;1.73;;;24.00;48.10;;;;;;5028545;28;20057;-50
2023/06/14 01:30:53;;;;;;;20.38;1.88;;;24.00;48.30;;;;;;5013758;28;20088;-52
2023/06/14 01:33:23;;;;;;;8.70;1.70;;;24.00;48.10;;;;;;5013617;28;20214;-52
2023/06/14 01:35:51;;;;;;;3.95;1.90;;;24.00;48.30;;;;;;5013725;28;20113;-52
2023/06/14 01:38:23;;;;;;;4.90;1.80;;;24.00;48.30;;;;;;5012042;28;20045;-53
2023/06/14 01:40:51;;;;;;;4.25;1.70;;;24.00;48.50;;;;;;5028857;28;20037;-55
2023/06/14 01:43:18;;;;;;;7.78;1.85;;;24.00;48.40;;;;;;5028643;28;20038;-55
2023/06/14 01:45:47;;;;;;;4.78;1.70;;;24.00;48.40;;;;;;5013498;28;20034;-53
2023/06/14 01:48:13;;;;;;;5.27;1.60;;;24.00;48.40;;;;;;5012056;28;21233;-51
2023/06/14 01:50:39;;;;;;;6.20;2.10;;;24.00;48.50;;;;;;5028707;28;20069;-51
2023/06/14 01:53:09;;;;;;;5.90;1.92;;;24.00;48.40;;;;;;5013394;28;20068;-55
2023/06/14 01:55:38;;;;;;;3.15;1.70;;;23.90;48.30;;;;;;5013568;28;20164;-49
2023/06/14 01:58:06;;;;;;;;;;;24.00;48.40;;;;;;5012126;28;20033;-54
2023/06/14 02:00:32;;;;;;;4.13;1.80;;;24.00;48.40;;;;;;5028423;28;19909;-52
2023/06/14 02:02:58;;;;;;;3.63;1.80;;;24.00;48.50;;;;;;5013206;28;20022;-52
2023/06/14 02:05:26;;;;;;;4.82;1.67;;;24.00;48.50;;;;;;5013043;28;20033;-55
2023/06/14 02:07:53;;;;;;;3.45;1.80;;;24.00;48.50;;;;;;5012820;28;20030;-56
2023/06/14 02:10:19;;;;;;;4.80;1.75;;;24.00;48.60;;;;;;5011959;28;20026;-54
2023/06/14 02:12:46;;;;;;;3.50;1.63;;;24.00;48.60;;;;;;5028273;28;20076;-55
2023/06/14 02:15:16;;;;;;;3.42;1.77;;;23.90;48.50;;;;;;5012822;28;20136;-51
2023/06/14 02:17:46;;;;;;;;;;;23.90;48.60;;;;;;5028149;28;20038;-48
2023/06/14 02:20:13;;;;;;;4.38;1.65;;;24.00;48.50;;;;;;5011711;28;20007;-53
2023/06/14 02:22:40;;;;;;;3.33;1.80;;;24.00;48.60;;;;;;5011675;28;20116;-52
2023/06/14 02:25:08;;;;;;;3.22;1.70;;;23.90;48.60;;;;;;5012660;28;20036;-54
2023/06/14 02:27:34;;;;;;;4.30;1.70;;;24.00;48.70;;;;;;5027619;28;20034;-52
2023/06/14 02:30:00;;;;;;;5.53;1.80;;;23.90;48.70;;;;;;5027897;28;20030;-50
2023/06/14 02:32:27;;;;;;;3.65;1.90;;;24.00;48.70;;;;;;5012916;28;20404;-51
2023/06/14 02:34:54;;;;;;;7.25;2.00;;;24.00;48.50;;;;;;5012619;28;20026;-52
2023/06/14 02:37:20;;;;;;;3.88;1.77;;;24.00;48.50;;;;;;5012375;28;20400;-58
2023/06/14 02:39:46;;;;;;;7.63;2.10;;;24.00;48.70;;;;;;5011713;28;20029;-58
2023/06/14 02:42:12;;;;;;;2.88;1.50;;;24.00;48.80;;;;;;5027655;28;20022;-58
2023/06/14 02:44:38;;;;;;;3.08;1.67;;;24.00;48.70;;;;;;5012271;28;20026;-57
2023/06/14 02:47:04;;;;;;;4.85;1.80;;;24.00;48.60;;;;;;5027306;28;20022;-57
2023/06/14 02:49:30;;;;;;;5.53;1.80;;;24.00;48.50;;;;;;5012176;28;20030;-56
2023/06/14 02:51:56;;;;;;;4.78;1.65;;;24.00;48.70;;;;;;5027703;28;20309;-57
2023/06/14 02:54:22;;;;;;;4.75;1.73;;;24.00;48.60;;;;;;5012224;28;20448;-55
2023/06/14 02:56:49;;;;;;;2.67;1.75;;;24.00;48.70;;;;;;5027148;28;20038;-57
2023/06/14 02:59:16;;;;;;;3.55;1.80;;;24.00;48.90;;;;;;5027360;28;20095;-54
2023/06/14 03:01:43;;;;;;;4.70;2.05;;;24.00;48.70;;;;;;5027317;28;20116;-57
2023/06/14 03:04:12;;;;;;;3.67;1.83;;;24.00;48.70;;;;;;5027373;28;20022;-55
2023/06/14 03:06:40;;;;;;;4.28;2.05;;;24.00;48.70;;;;;;5010833;28;20035;-57
2023/06/14 03:09:09;;;;;;;3.78;1.70;;;24.00;48.90;;;;;;5027161;28;20065;-57
2023/06/14 03:11:36;;;;;;;4.38;1.80;;;24.00;48.80;;;;;;5012163;28;20110;-58
2023/06/14 03:14:07;;;;;;;5.53;1.48;;;24.00;49.00;;;;;;5011874;28;20473;-55
2023/06/14 03:16:37;;;;;;;3.15;1.85;;;24.00;49.10;;;;;;5010757;28;20030;-57
2023/06/14 03:19:03;;;;;;;3.05;1.60;;;24.00;49.00;;;;;;5026847;28;20037;-58
2023/06/14 03:21:32;;;;;;;5.78;2.03;;;23.90;49.00;;;;;;5010873;28;20028;-58
2023/06/14 03:24:00;;;;;;;2.90;1.63;;;23.90;49.50;;;;;;5027163;28;20033;-54
2023/06/14 03:26:25;;;;;;;6.88;1.80;;;23.90;49.00;;;;;;5027218;28;20559;-57
2023/06/14 03:28:54;;;;;;;6.95;2.10;;;23.90;49.10;;;;;;5011549;28;20026;-58
2023/06/14 03:31:21;;;;;;;4.40;2.00;;;23.90;49.00;;;;;;5011900;28;20030;-58
2023/06/14 03:33:48;;;;;;;2.22;1.42;;;23.90;49.10;;;;;;5010682;28;20401;-58
2023/06/14 03:36:14;;;;;;;5.72;1.80;;;23.90;49.10;;;;;;5027051;28;20029;-56
2023/06/14 03:38:40;;;;;;;4.72;1.88;;;23.90;49.00;;;;;;5026564;28;20456;-57
2023/06/14 03:41:06;;;;;;;4.65;1.85;;;23.90;49.10;;;;;;5011808;28;20057;-58
2023/06/14 03:43:33;;;;;;;4.90;2.00;;;23.90;49.20;;;;;;5026781;28;20029;-57
2023/06/14 03:46:00;;;;;;;9.43;1.80;;;23.90;49.10;;;;;;5010571;28;20053;-58
2023/06/14 03:48:27;;;;;;;4.32;1.98;;;23.90;49.10;;;;;;5026664;28;20036;-59
2023/06/14 03:50:54;;;;;;;4.20;2.08;;;23.90;49.70;;;;;;5012747;28;20045;-58
2023/06/14 03:53:23;;;;;;;3.38;1.75;;;23.90;49.20;;;;;;5015610;28;20041;-55
2023/06/14 03:55:52;;;;;;;4.70;1.70;;;23.90;49.10;;;;;;5014384;28;20408;-57
2023/06/14 03:58:18;;;;;;;4.70;1.70;;;23.90;49.20;;;;;;5030351;28;20038;-53
2023/06/14 04:00:45;;;;;;;3.55;1.92;;;23.90;49.30;;;;;;5030792;28;20026;-55
2023/06/14 04:03:13;;;;;;;8.15;2.47;;;23.90;49.30;;;;;;5015369;28;20092;-58
2023/06/14 04:05:42;;;;;;;4.20;2.10;;;23.90;49.20;;;;;;5014120;28;20157;-56
2023/06/14 04:08:14;;;;;;;2.65;1.70;;;23.90;49.10;;;;;;5030310;28;20053;-58
2023/06/14 04:10:40;;;;;;;7.10;1.63;;;23.90;49.80;;;;;;5030663;28;20033;-54
2023/06/14 04:13:07;;;;;;;3.83;1.90;;;23.90;49.20;;;;;;5013943;28;20124;-54
2023/06/14 04:15:33;;;;;;;3.78;1.70;;;23.90;49.30;;;;;;5030470;28;20124;-55
2023/06/14 04:18:00;;;;;;;3.47;1.98;;;23.90;49.20;;;;;;5030151;28;20033;-57
2023/06/14 04:20:26;;;;;;;4.50;1.70;;;24.00;49.30;;;;;;5014029;28;20435;-58
2023/06/14 04:22:52;;;;;;;4.00;2.00;;;24.00;49.10;;;;;;5030325;28;20030;-59
2023/06/14 04:25:20;;;;;;;4.55;1.88;;;24.00;49.20;;;;;;5030284;28;20025;-58
2023/06/14 04:27:47;;;;;;;3.28;1.90;;;23.90;49.30;;;;;;5014811;28;20088;-55
2023/06/14 04:30:13;;;;;;;5.50;2.15;;;23.90;49.10;;;;;;5013781;28;20026;-58
2023/06/14 04:32:49;;;;;;;4.20;2.10;;;24.00;49.20;;;;;;5030157;28;20129;-57
2023/06/14 04:35:15;;;;;;;3.80;2.00;;;24.00;49.20;;;;;;5013804;28;20033;-56
2023/06/14 04:37:45;;;;;;;3.30;1.90;;;24.00;49.20;;;;;;5013344;28;20088;-56
2023/06/14 04:40:12;;;;;;;3.85;1.90;;;23.90;49.20;;;;;;5030054;28;20030;-52
2023/06/14 04:42:40;;;;;;;4.35;1.95;;;23.90;49.30;;;;;;5013552;28;20034;-56
2023/06/14 04:45:09;;;;;;;2.78;1.80;;;23.90;49.30;;;;;;5013234;28;20125;-54
2023/06/14 04:47:37;;;;;;;6.32;2.13;;;23.90;49.30;;;;;;5014391;28;20036;-54
2023/06/14 04:50:06;;;;;;;4.25;1.85;;;23.90;49.30;;;;;;5013404;28;20030;-56
2023/06/14 04:52:32;;;;;;;3.28;1.80;;;23.90;49.40;;;;;;5014542;28;20026;-54
2023/06/14 04:54:58;;;;;;;4.97;1.90;;;23.90;49.50;;;;;;4997058;28;20203;-50
2023/06/14 04:57:25;;;;;;;2.70;1.60;;;23.90;49.40;;;;;;5012959;28;20502;-52
2023/06/14 04:59:57;;;;;;;3.15;1.85;;;23.90;49.50;;;;;;5029487;28;20026;-53
2023/06/14 05:02:25;;;;;;;2.28;1.95;;;23.90;49.30;;;;;;5028858;28;20400;-58
2023/06/14 05:04:53;;;;;;;3.03;1.98;;;23.90;49.40;;;;;;5012911;28;20101;-52
2023/06/14 05:07:20;;;;;;;5.05;2.35;;;23.90;49.40;;;;;;5012711;28;20026;-51
2023/06/14 05:09:46;;;;;;;6.70;2.08;;;23.90;49.60;;;;;;5012972;28;20485;-52
2023/06/14 05:12:12;;;;;;;3.25;1.80;;;23.90;49.40;;;;;;5029319;28;20604;-53
2023/06/14 05:14:39;;;;;;;3.00;1.90;;;23.90;49.60;;;;;;5014022;28;20033;-52
2023/06/14 05:17:06;;;;;;;3.75;2.25;;;23.90;49.60;;;;;;5013879;28;20273;-51
2023/06/14 05:19:32;;;;;;;3.17;1.90;;;23.90;49.60;;;;;;5013892;28;20033;-52
2023/06/14 05:21:58;;;;;;;2.83;1.88;;;23.80;49.40;;;;;;5013940;28;20022;-57
2023/06/14 05:24:24;;;;;;;3.53;1.70;;;23.90;49.40;;;;;;5013787;28;20025;-51
2023/06/14 05:26:50;;;;;;;3.33;2.10;;;23.90;49.60;;;;;;5013545;28;20362;-55
2023/06/14 05:29:15;;;;;;;4.07;2.00;;;23.90;49.60;;;;;;5013828;28;20099;-52
2023/06/14 05:31:41;;;;;;;8.27;2.10;;;23.80;49.60;;;;;;5029047;28;20040;-54
2023/06/14 05:34:07;;;;;;;3.67;1.85;;;23.80;49.60;;;;;;5013711;28;20069;-56
2023/06/14 05:36:33;;;;;;;3.67;2.00;;;23.80;49.80;;;;;;5013681;28;20548;-56
2023/06/14 05:38:59;;;;;;;13.60;2.15;;;23.90;49.70;;;;;;5013434;28;20485;-58
2023/06/14 05:41:28;;;;;;;3.38;1.90;;;23.80;49.80;;;;;;5013920;28;20384;-58
2023/06/14 05:43:55;;;;;;;5.45;2.28;;;23.80;49.60;;;;;;5038493;23;20057;-59
2023/06/14 05:46:24;;;;;;;5.28;2.28;;;23.80;50.30;;;;;;5052966;28;20051;-58
2023/06/14 05:48:53;;;;;;;4.32;2.00;;;23.90;49.50;;;;;;5052276;28;20033;-57
2023/06/14 05:51:19;;;;;;;6.75;2.30;;;23.90;49.50;;;;;;5053213;28;20033;-58
2023/06/14 05:53:46;;;;;;;7.97;2.22;;;23.90;49.50;;;;;;5068636;28;20623;-59
2023/06/14 05:56:12;;;;;;;12.10;2.60;;;23.90;49.60;;;;;;5051872;28;20492;-60
2023/06/14 05:58:39;;;;;;;8.85;1.98;;;23.90;50.20;;;;;;5042901;28;20045;-57
2023/06/14 06:01:05;;;;;;;11.73;2.30;;;23.80;49.70;;;;;;5052017;28;20048;-59
2023/06/14 06:03:30;;;;;;;10.88;2.20;;;23.90;50.20;;;;;;5051974;28;20099;-56
2023/06/14 06:05:56;;;;;;;16.45;2.47;;;23.90;50.60;;;;;;5052626;28;20122;-57
2023/06/14 06:08:22;;;;;;;12.82;2.50;;;23.90;51.00;;;;;;5048180;28;20048;-57
2023/06/14 06:10:48;;;;;;;9.93;3.30;;;23.80;50.80;;;;;;5048874;28;20496;-59
2023/06/14 06:13:13;;;;;;;12.10;3.42;;;23.80;50.30;;;;;;5050284;28;20052;-59
2023/06/14 06:15:39;;;;;;;12.90;3.67;;;23.70;49.80;;;;;;5050110;28;20029;-59
2023/06/14 06:18:06;;;;;;;8.80;4.53;;;23.70;49.70;;;;;;5050035;28;20032;-55
2023/06/14 06:20:32;;;;;;;12.07;3.97;;;23.70;49.80;;;;;;5050336;28;20036;-59
2023/06/14 06:22:58;;;;;;;10.10;3.92;;;23.60;49.10;;;;;;5050273;28;20029;-59
2023/06/14 06:25:26;;;;;;;9.75;3.70;;;23.60;49.00;;;;;;5049955;28;20025;-58
2023/06/14 06:27:53;;;;;;;12.27;5.03;;;23.60;49.20;;;;;;5041931;28;20029;-59
2023/06/14 06:30:20;;;;;;;10.27;4.47;;;23.60;49.10;;;;;;5050176;28;20040;-60
2023/06/14 06:32:46;;;;;;;8.80;4.50;;;23.60;49.10;;;;;;5048970;28;20103;-58
2023/06/14 06:35:15;;;;;;;11.50;4.75;;;23.60;49.00;;;;;;5049258;28;20273;-59
2023/06/14 06:37:44;;;;;;;18.07;4.60;;;23.50;48.90;;;;;;5049050;28;20112;-57
2023/06/14 06:40:10;;;;;;;17.13;5.13;;;23.50;49.30;;;;;;5048392;28;20297;-60
2023/06/14 06:42:36;;;;;;;12.50;4.32;;;23.40;49.00;;;;;;5050154;28;20044;-60
2023/06/14 06:45:05;;;;;;;7.82;4.22;;;23.40;49.30;;;;;;5048245;28;20399;-59
2023/06/14 06:47:31;;;;;;;13.95;4.50;;;23.40;49.10;;;;;;5049460;28;20131;-58
2023/06/14 06:49:57;;;;;;;14.52;3.97;;;23.40;49.20;;;;;;5050122;28;20068;-60
2023/06/14 06:52:23;;;;;;;19.23;4.55;;;23.30;49.20;;;;;;5049805;28;20112;-60
2023/06/14 06:54:50;;;;;;;19.40;4.40;;;23.40;49.80;;;;;;5049910;28;20346;-57
2023/06/14 06:57:16;;;;;;;21.95;4.32;;;23.40;49.80;;;;;;5046956;28;20025;-58
2023/06/14 06:59:42;;;;;;;10.07;3.90;;;23.40;49.70;;;;;;5048471;28;20442;-59
2023/06/14 07:02:07;;;;;;;23.25;3.97;;;23.50;49.50;;;;;;5049956;28;20075;-58
2023/06/14 07:04:33;;;;;;;12.55;3.95;;;23.50;49.30;;;;;;5049293;28;20029;-55
2023/06/14 07:06:59;;;;;;;13.32;3.70;;;23.60;49.40;;;;;;5049482;28;20025;-57
2023/06/14 07:09:25;;;;;;;18.02;4.15;;;23.60;49.40;;;;;;5048244;28;20484;-57
2023/06/14 07:11:51;;;;;;;10.93;3.88;;;23.60;49.30;;;;;;5049818;28;20115;-57
2023/06/14 07:14:17;;;;;;;14.57;3.65;;;23.60;49.50;;;;;;5049329;28;20033;-56
2023/06/14 07:16:43;;;;;;;12.32;3.53;;;23.60;49.40;;;;;;5049061;28;20396;-56
2023/06/14 07:19:10;;;;;;;9.80;3.50;;;23.60;49.30;;;;;;5049274;28;20033;-60
2023/06/14 07:21:39;;;;;;;15.57;4.13;;;23.60;49.30;;;;;;5049279;28;20029;-58
2023/06/14 07:24:08;;;;;;;13.57;3.70;;;23.70;49.40;;;;;;5049190;28;20078;-59
2023/06/14 07:26:35;;;;;;;8.17;3.50;;;23.70;49.40;;;;;;5048414;28;20027;-60
2023/06/14 07:29:01;;;;;;;13.73;3.67;;;23.60;49.30;;;;;;5049060;28;20037;-58
2023/06/14 07:31:27;;;;;;;15.57;4.63;;;23.60;49.80;;;;;;5049483;28;20108;-60
2023/06/14 07:33:53;;;;;;;11.25;3.63;;;23.70;49.70;;;;;;5049492;28;20112;-58
2023/06/14 07:36:19;;;;;;;8.57;3.42;;;23.60;49.60;;;;;;5049360;28;20165;-55
2023/06/14 07:38:46;;;;;;;12.05;4.28;;;23.70;49.70;;;;;;5048412;28;20531;-59
2023/06/14 07:41:11;;;;;;;8.55;3.70;;;23.70;49.70;;;;;;5049462;28;20021;-58
2023/06/14 07:43:37;;;;;;;11.20;3.47;;;23.70;49.80;;;;;;5049477;28;20032;-59
2023/06/14 07:46:04;;;;;;;13.23;3.65;;;23.70;49.80;;;;;;5049289;28;20052;-60
2023/06/14 07:48:30;;;;;;;8.55;3.20;;;23.70;49.90;;;;;;5050672;28;20120;-58
2023/06/14 07:50:55;;;;;;;8.45;3.38;;;23.70;50.10;;;;;;5048000;28;20116;-59
2023/06/14 07:53:21;;;;;;;8.75;3.00;;;23.70;49.90;;;;;;5049314;28;20063;-60
2023/06/14 07:55:48;;;;;;;12.68;3.38;;;23.70;50.20;;;;;;5049130;28;20641;-59
2023/06/14 07:58:14;;;;;;;8.25;3.20;;;23.70;50.00;;;;;;5048725;28;20085;-55
2023/06/14 08:00:40;;;;;;;12.60;3.35;;;23.70;50.10;;;;;;5049044;28;20028;-52
2023/06/14 08:03:05;;;;;;;8.20;2.83;;;23.70;50.20;;;;;;5049556;28;20052;-56
2023/06/14 08:05:31;;;;;;;5.00;2.95;;;23.70;50.20;;;;;;5048839;28;20028;-58
2023/06/14 08:07:57;;;;;;;6.55;2.92;;;23.70;50.20;;;;;;5049178;28;20365;-55
2023/06/14 08:10:23;;;;;;;12.63;3.30;;;23.70;50.30;;;;;;5049192;28;20048;-57
2023/06/14 08:12:52;;;;;;;10.30;3.22;;;23.70;51.00;;;;;;5049012;28;20040;-57
2023/06/14 08:15:18;;;;;;;7.72;3.47;;;23.70;50.70;;;;;;5048724;28;20450;-55
2023/06/14 08:17:45;;;;;;;12.60;3.20;;;23.70;50.40;;;;;;5047368;28;20112;-58
2023/06/14 08:20:11;;;;;;;16.42;3.85;;;23.70;50.80;;;;;;5049009;28;20029;-59
2023/06/14 08:22:37;;;;;;;9.43;3.00;;;23.70;51.00;;;;;;5048924;28;20504;-57
2023/06/14 08:25:04;;;;;;;11.20;3.45;;;23.70;50.70;;;;;;5047986;28;20179;-57
2023/06/14 08:27:30;;;;;;;6.10;3.03;;;23.70;50.80;;;;;;5047797;28;20029;-58
2023/06/14 08:29:56;;;;;;;14.02;3.17;;;23.80;50.60;;;;;;5048709;28;20110;-56
2023/06/14 08:32:22;;;;;;;10.30;3.15;;;23.70;50.70;;;;;;5048858;28;20048;-55
2023/06/14 08:34:48;;;;;;;10.35;3.05;;;23.70;50.70;;;;;;5048583;28;20032;-57
2023/06/14 08:37:14;;;;;;;7.97;3.47;;;23.70;50.80;;;;;;5048606;28;20032;-56
2023/06/14 08:39:41;;;;;;;8.88;2.83;;;23.70;50.70;;;;;;5052279;28;20029;-58
2023/06/14 08:42:08;;;;;;;10.82;3.40;;;23.80;50.80;;;;;;5052336;28;20068;-59
2023/06/14 08:44:34;;;;;;;8.35;3.40;;;23.70;50.80;;;;;;5052198;28;20032;-59
2023/06/14 08:47:00;;;;;;;6.75;2.47;;;23.80;50.90;;;;;;5052119;28;20017;-56
2023/06/14 08:49:27;;;;;;;9.18;3.30;;;23.80;51.00;;;;;;5052227;28;20083;-59
2023/06/14 08:51:58;;;;;;;8.32;2.90;;;23.80;51.00;;;;;;5052302;28;20025;-56
2023/06/14 08:54:27;;;;;;;8.85;2.92;;;23.70;50.90;;;;;;5052166;28;20522;-57
2023/06/14 08:56:57;;;;;;;9.40;3.28;;;23.80;51.10;;;;;;5051581;28;20029;-54
2023/06/14 08:59:28;;;;;;;7.88;3.03;;;23.80;50.80;;;;;;5051344;28;20412;-54
2023/06/14 09:01:54;;;;;;;11.23;3.10;;;23.80;50.90;;;;;;5043066;28;20084;-56
2023/06/14 09:04:29;;;;;;;11.48;3.28;;;23.70;51.00;;;;;;5051410;28;20141;-57
2023/06/14 09:06:55;;;;;;;9.57;2.83;;;23.80;51.00;;;;;;5048674;28;20502;-59
2023/06/14 09:09:28;;;;;;;10.75;3.45;;;23.80;51.00;;;;;;5051415;28;20059;-59
2023/06/14 09:11:55;;;;;;;8.82;3.13;;;23.80;50.90;;;;;;5043116;28;20039;-58
2023/06/14 09:14:23;;;;;;;11.23;3.53;;;23.80;51.00;;;;;;5050320;28;20028;-59
2023/06/14 09:16:56;;;;;;;;;;;23.80;51.00;;;;;;5051363;28;20024;-57
2023/06/14 09:19:24;;;;;;;5.65;2.70;;;23.80;51.00;;;;;;5051441;28;19913;-57
2023/06/14 09:21:52;;;;;;;6.82;2.78;;;23.80;51.00;;;;;;5050772;28;20021;-59
2023/06/14 09:24:19;;;;;;;7.30;2.55;;;23.80;51.00;;;;;;5050245;28;20040;-58
2023/06/14 09:26:48;;;;;;;9.50;2.78;;;23.80;50.90;;;;;;5050224;28;20019;-60
2023/06/14 09:29:16;;;;;;;5.63;2.60;;;23.80;50.90;;;;;;5050013;28;20098;-59
2023/06/14 09:31:42;;;;;;;6.25;2.78;;;23.80;51.00;;;;;;5051226;28;20029;-59
2023/06/14 09:34:09;;;;;;;9.07;2.63;;;23.80;51.00;;;;;;5051076;28;20040;-58
2023/06/14 09:36:36;;;;;;;9.95;3.00;;;23.80;51.00;;;;;;5050147;28;20028;-59
2023/06/14 09:39:07;;;;;;;11.43;2.83;;;23.80;51.00;;;;;;5048850;28;20498;-58
2023/06/14 09:41:36;;;;;;;11.70;3.38;;;23.80;51.20;;;;;;5048762;28;20065;-58
2023/06/14 09:44:04;;;;;;;7.63;2.95;;;23.80;51.10;;;;;;5049061;28;20033;-59
2023/06/14 09:46:30;;;;;;;7.90;2.95;;;23.70;51.00;;;;;;5049453;28;20037;-59
2023/06/14 09:48:58;;;;;;;8.77;3.00;;;23.70;51.00;;;;;;5048706;28;20274;-57
2023/06/14 09:51:25;;;;;;;8.07;3.40;;;23.70;50.90;;;;;;5046879;28;20040;-57
2023/06/14 09:53:51;;;;;;;11.63;2.63;;;23.70;51.00;;;;;;5044636;28;20052;-55
2023/06/14 09:56:26;;;;;;;8.15;2.78;;;23.80;51.00;;;;;;5048418;28;20032;-60
2023/06/14 09:58:56;;;;;;;12.73;2.95;;;23.80;50.90;;;;;;5044244;28;20082;-55
2023/06/14 10:01:27;;;;;;;6.53;2.83;;;23.80;51.10;;;;;;5048517;28;20180;-59
2023/06/14 10:04:03;;;;;;;12.85;2.55;;;23.70;50.90;;;;;;5047443;28;20029;-59
2023/06/14 10:06:30;;;;;;;8.38;2.90;;;23.80;51.10;;;;;;5049406;28;20519;-58
2023/06/14 10:08:59;;;;;;;9.90;3.28;;;23.80;51.10;;;;;;5049818;28;20149;-58
2023/06/14 10:11:29;;;;;;;9.55;2.95;;;23.80;51.10;;;;;;5050056;28;20107;-56
2023/06/14 10:13:59;;;;;;;14.55;3.08;;;23.80;51.10;;;;;;5042249;28;20550;-59
2023/06/14 10:17:06;;;;;;;9.27;2.60;;;23.80;51.00;;;;;;5050309;28;20499;-59
2023/06/14 10:19:54;;;;;;;11.93;3.10;;;23.80;51.00;;;;;;5047547;28;20404;-57
2023/06/14 10:22:28;;;;;;;12.50;2.83;;;23.80;51.10;;;;;;5045860;28;20048;-57
2023/06/14 10:24:55;;;;;;;7.07;2.60;;;23.80;51.10;;;;;;5049497;28;20407;-59
2023/06/14 10:27:24;;;;;;;6.20;2.50;;;23.80;51.10;;;;;;5049226;28;20036;-59
2023/06/14 10:29:53;;;;;;;10.15;3.00;;;23.80;51.10;;;;;;5048937;28;20032;-59
2023/06/14 10:32:20;;;;;;;9.35;2.67;;;23.80;51.00;;;;;;5049567;28;20036;-58
2023/06/14 10:34:58;;;;;;;5.43;2.90;;;23.80;51.00;;;;;;5050078;28;20112;-58
2023/06/14 10:37:25;;;;;;;12.80;3.08;;;23.80;51.10;;;;;;5046149;28;20104;-58
2023/06/14 10:39:51;;;;;;;7.72;2.60;;;23.80;51.10;;;;;;5049151;28;20039;-58
2023/06/14 10:42:17;;;;;;;7.90;2.90;;;23.80;51.20;;;;;;5049080;28;20464;-58
2023/06/14 10:44:55;;;;;;;8.95;3.13;;;23.80;51.10;;;;;;5048903;28;20068;-58
2023/06/14 10:47:35;;;;;;;9.63;2.92;;;23.80;51.00;;;;;;5048724;28;20025;-54
2023/06/14 10:50:05;;;;;;;11.05;3.03;;;23.80;51.10;;;;;;5042326;28;20025;-57
2023/06/14 10:52:37;;;;;;;9.80;3.13;;;23.80;51.10;;;;;;5049703;28;20036;-57
2023/06/14 10:55:15;;;;;;;6.45;2.40;;;23.80;51.10;;;;;;5049157;28;20044;-54
2023/06/14 10:57:43;;;;;;;9.88;2.92;;;23.80;51.10;;;;;;5048577;28;20116;-57
2023/06/14 11:00:15;;;;;;;6.07;2.80;;;23.80;51.00;;;;;;5048114;28;20104;-59
2023/06/14 11:03:13;;;;;;;5.15;2.65;;;23.80;51.10;;;;;;5048842;28;20021;-58
2023/06/14 11:05:53;;;;;;;4.30;2.58;;;23.80;51.10;;;;;;5047943;28;20565;-58
2023/06/14 11:08:34;;;;;;;;;;;23.80;51.10;;;;;;5049071;28;20026;-58
2023/06/14 11:11:00;;;;;;;11.68;3.17;;;23.80;51.00;;;;;;5041671;28;19951;-57
2023/06/14 11:13:26;;;;;;;8.07;3.03;;;23.80;51.20;;;;;;5048973;28;20082;-60
2023/06/14 11:15:53;;;;;;;8.80;2.50;;;23.80;51.20;;;;;;5047298;28;20028;-58
2023/06/14 11:18:24;;;;;;;13.10;2.80;;;23.80;51.20;;;;;;5044822;28;20492;-59
2023/06/14 11:20:50;;;;;;;8.63;2.78;;;23.80;51.20;;;;;;5047522;28;20025;-58
2023/06/14 11:23:16;;;;;;;8.02;2.80;;;23.80;51.10;;;;;;5048404;28;20459;-57
2023/06/14 11:25:42;;;;;;;6.47;2.45;;;23.80;51.10;;;;;;5048524;28;20107;-60
2023/06/14 11:28:07;;;;;;;5.93;2.40;;;23.80;51.20;;;;;;5045047;28;20079;-56
2023/06/14 11:30:34;;;;;;;9.20;2.72;;;23.80;51.10;;;;;;5046405;28;20049;-58
2023/06/14 11:33:00;;;;;;;8.38;2.60;;;23.80;51.20;;;;;;5046931;28;20067;-57
2023/06/14 11:35:26;;;;;;;6.85;3.00;;;23.80;51.20;;;;;;5048345;28;20024;-55
2023/06/14 11:37:56;;;;;;;8.15;2.83;;;23.80;51.10;;;;;;5047523;28;20029;-55
2023/06/14 11:40:26;;;;;;;5.43;2.60;;;23.80;51.10;;;;;;5049228;28;20105;-54
2023/06/14 11:43:00;;;;;;;8.23;2.80;;;23.80;51.10;;;;;;5047720;28;20017;-58
2023/06/14 11:45:26;;;;;;;8.05;2.80;;;23.80;51.10;;;;;;5048233;28;20033;-55
2023/06/14 11:48:00;;;;;;;4.68;2.40;;;23.80;51.20;;;;;;5039710;28;20037;-57
2023/06/14 11:50:27;;;;;;;8.73;2.65;;;23.80;51.20;;;;;;5048606;28;20603;-54
2023/06/14 11:53:09;;;;;;;5.57;2.50;;;23.80;51.10;;;;;;5040368;28;20025;-57
2023/06/14 11:55:39;;;;;;;3.97;2.58;;;23.80;51.10;;;;;;5048347;28;20203;-55
2023/06/14 11:58:05;;;;;;;9.98;2.70;;;23.80;51.10;;;;;;5048752;28;20138;-56
2023/06/14 12:00:31;;;;;;;8.18;2.65;;;23.80;51.10;;;;;;5047786;28;20557;-59
2023/06/14 12:02:57;;;;;;;8.70;2.80;;;23.80;51.20;;;;;;5048302;28;20040;-56
2023/06/14 12:05:25;;;;;;;9.00;2.60;;;23.80;51.10;;;;;;5048299;28;20060;-58
2023/06/14 12:08:02;;;;;;;9.02;2.63;;;23.80;51.20;;;;;;5039647;28;20025;-58
2023/06/14 12:10:29;;;;;;;6.22;2.60;;;23.80;51.20;;;;;;5048847;28;20025;-56
2023/06/14 12:12:59;;;;;;;8.05;2.30;;;23.80;51.20;;;;;;5051676;28;20028;-59
2023/06/14 12:15:28;;;;;;;7.82;2.60;;;23.80;51.30;;;;;;5050021;28;20112;-57
2023/06/14 12:17:54;;;;;;;6.85;2.45;;;23.90;51.20;;;;;;5044095;28;20044;-57
2023/06/14 12:20:21;;;;;;;6.80;2.40;;;23.80;51.20;;;;;;5052153;28;20439;-59
2023/06/14 12:22:56;;;;;;;4.80;2.50;;;23.80;51.20;;;;;;5052204;28;20021;-54
2023/06/14 12:25:34;;;;;;;5.15;2.58;;;23.90;51.20;;;;;;5051359;28;20025;-56
2023/06/14 12:28:07;;;;;;;7.28;2.42;;;23.90;51.10;;;;;;5051534;28;20056;-57
2023/06/14 12:30:35;;;;;;;4.22;2.70;;;23.80;51.20;;;;;;5051519;28;20116;-57
2023/06/14 12:33:02;;;;;;;6.13;2.72;;;23.90;51.30;;;;;;5051822;28;20117;-56
2023/06/14 12:35:28;;;;;;;9.00;3.03;;;23.90;51.40;;;;;;5051625;28;20060;-60
2023/06/14 12:37:54;;;;;;;6.75;2.78;;;23.80;51.20;;;;;;5051209;28;20071;-58
2023/06/14 12:40:19;;;;;;;8.43;2.92;;;23.80;51.20;;;;;;5052640;28;20025;-55
2023/06/14 12:42:48;;;;;;;8.48;2.40;;;23.80;51.20;;;;;;5051701;28;20079;-55
2023/06/14 12:45:15;;;;;;;5.43;2.60;;;23.80;51.20;;;;;;5051670;28;20029;-58
2023/06/14 12:47:42;;;;;;;6.57;2.60;;;23.90;51.20;;;;;;5051719;28;20554;-55
2023/06/14 12:50:08;;;;;;;4.75;2.65;;;23.90;51.10;;;;;;5051499;28;20078;-58
2023/06/14 12:52:35;;;;;;;8.43;2.58;;;23.80;51.10;;;;;;5051954;28;20025;-54